createdAt,value
2023-01-08T04:36:25.239Z,24.80
2023-01-08T04:38:53.291Z,25.20
2023-01-08T04:41:21.368Z,26.00
2023-01-08T04:43:49.215Z,25.00
2023-01-08T04:46:17.209Z,24.40
2023-01-08T04:48:44.981Z,26.00
2023-01-08T04:51:12.864Z,26.30
2023-01-08T04:53:41.724Z,26.80
2023-01-08T04:56:10.839Z,24.90
2023-01-08T04:58:39.348Z,26.70
2023-01-08T05:01:12.345Z,26.70
2023-01-08T05:03:40.620Z,25.80
2023-01-08T05:06:08.971Z,27.30
2023-01-08T05:08:36.875Z,25.80
2023-01-08T05:11:04.874Z,25.70
2023-01-08T05:13:32.798Z,26.70
2023-01-08T05:16:01.384Z,25.60
2023-01-08T05:18:29.804Z,27.60
2023-01-08T05:21:02.194Z,25.30
2023-01-08T05:23:31.500Z,25.80
2023-01-08T05:26:01.116Z,25.90
2023-01-08T05:28:29.259Z,25.70
2023-01-08T05:30:58.056Z,23.90
2023-01-08T05:33:26.338Z,22.90
2023-01-08T05:35:54.682Z,23.60
2023-01-08T05:38:23.162Z,24.50
2023-01-08T05:40:54.388Z,23.10
2023-01-08T05:43:22.522Z,22.90
2023-01-08T05:45:50.346Z,20.80
2023-01-08T05:48:18.541Z,20.60
2023-01-08T05:50:49.413Z,20.60
2023-01-08T05:53:42.608Z,20.20
2023-01-08T05:56:11.861Z,19.10
2023-01-08T05:58:39.622Z,19.40
2023-01-08T06:01:13.557Z,17.70
2023-01-08T06:03:41.496Z,18.90
2023-01-08T06:06:11.062Z,19.60
2023-01-08T06:08:39.663Z,17.50
2023-01-08T06:11:11.064Z,17.50
2023-01-08T06:13:42.370Z,16.80
2023-01-08T06:16:10.660Z,16.80
2023-01-08T06:18:39.142Z,15.30
2023-01-08T06:21:07.128Z,16.30
2023-01-08T06:23:35.094Z,15.30
2023-01-08T06:26:04.318Z,16.20
2023-01-08T06:28:33.084Z,15.00
2023-01-08T06:31:01.813Z,15.80
2023-01-08T06:33:30.731Z,15.30
2023-01-08T06:36:04.460Z,15.50
2023-01-08T06:38:35.617Z,14.80
2023-01-08T06:41:08.816Z,14.60
2023-01-08T06:43:38.098Z,14.40
2023-01-08T06:46:08.836Z,14.90
2023-01-08T06:48:37.656Z,15.00
2023-01-08T06:51:06.449Z,14.00
2023-01-08T06:53:34.361Z,14.50
2023-01-08T06:56:03.747Z,14.30
2023-01-08T06:58:31.678Z,13.50
2023-01-08T07:00:59.674Z,14.10
2023-01-08T07:03:27.704Z,13.60
2023-01-08T07:05:56.799Z,13.20
2023-01-08T07:08:24.686Z,12.90
2023-01-08T07:10:52.475Z,13.40
2023-01-08T07:13:22.985Z,14.10
2023-01-08T07:15:51.666Z,13.30
2023-01-08T07:18:19.669Z,12.10
2023-01-08T07:20:50.660Z,12.80
2023-01-08T07:23:18.419Z,12.70
2023-01-08T07:25:47.432Z,12.60
2023-01-08T07:28:15.650Z,13.40
2023-01-08T07:30:44.961Z,13.90
2023-01-08T07:33:12.798Z,13.00
2023-01-08T07:35:40.848Z,14.00
2023-01-08T07:38:08.741Z,12.30
2023-01-08T07:40:39.143Z,13.30
2023-01-08T07:43:07.372Z,12.30
2023-01-08T07:45:35.267Z,13.80
2023-01-08T07:48:03.051Z,13.00
2023-01-08T07:50:31.167Z,13.80
2023-01-08T07:53:02.523Z,14.20
2023-01-08T07:55:31.042Z,12.90
2023-01-08T07:57:59.131Z,13.20
2023-01-08T08:00:27.110Z,13.40
2023-01-08T08:02:55.358Z,13.40
2023-01-08T08:05:24.146Z,13.40
2023-01-08T08:07:52.049Z,12.90
2023-01-08T08:10:19.873Z,12.70
2023-01-08T08:12:47.800Z,12.80
2023-01-08T08:15:15.740Z,13.20
2023-01-08T08:17:48.312Z,13.20
2023-01-08T08:20:16.468Z,13.20
2023-01-08T08:22:44.255Z,12.60
2023-01-08T08:25:15.324Z,12.40
2023-01-08T08:27:44.317Z,11.90
2023-01-08T08:30:13.020Z,11.80
2023-01-08T08:32:40.831Z,13.10
2023-01-08T08:35:09.257Z,11.70
2023-01-08T08:37:37.154Z,11.80
2023-01-08T08:40:05.510Z,12.50
2023-01-08T08:42:33.319Z,12.60
2023-01-08T08:45:01.156Z,12.10
2023-01-08T08:47:28.937Z,13.30
2023-01-08T08:49:56.720Z,12.30
2023-01-08T08:52:24.626Z,12.20
2023-01-08T08:54:52.435Z,11.60
2023-01-08T08:57:20.194Z,11.60
2023-01-08T08:59:48.337Z,12.30
2023-01-08T09:02:16.480Z,12.20
2023-01-08T09:04:44.453Z,11.90
2023-01-08T09:07:12.283Z,12.00
2023-01-08T09:09:40.050Z,12.00
2023-01-08T09:12:08.234Z,12.70
2023-01-08T09:14:36.218Z,12.10
2023-01-08T09:17:04.052Z,12.30
2023-01-08T09:19:31.852Z,11.90
2023-01-08T09:22:01.252Z,12.40
2023-01-08T09:24:32.201Z,13.00
2023-01-08T09:27:00.120Z,12.70
2023-01-08T09:29:27.889Z,12.50
2023-01-08T09:31:55.941Z,12.30
2023-01-08T09:34:23.804Z,12.90
2023-01-08T09:36:52.416Z,12.40
2023-01-08T09:39:20.527Z,12.60
2023-01-08T09:41:58.243Z,12.40
2023-01-08T09:44:29.898Z,12.10
2023-01-08T09:46:58.715Z,11.90
2023-01-08T09:49:38.656Z,13.30
2023-01-08T09:52:06.873Z,12.40
2023-01-08T09:54:34.747Z,12.60
2023-01-08T09:57:02.829Z,12.80
2023-01-08T09:59:31.224Z,12.40
2023-01-08T10:01:59.745Z,12.80
2023-01-08T10:04:29.955Z,12.50
2023-01-08T10:07:11.046Z,13.10
2023-01-08T10:09:40.876Z,12.60
2023-01-08T10:12:12.883Z,12.50
2023-01-08T10:14:48.098Z,12.90
2023-01-08T10:17:39.231Z,11.20
2023-01-08T10:20:16.078Z,11.00
2023-01-08T10:22:44.671Z,12.20
2023-01-08T10:25:16.582Z,12.00
2023-01-08T10:27:53.497Z,12.00
2023-01-08T10:30:29.035Z,11.60
2023-01-08T10:33:02.666Z,11.80
2023-01-08T10:35:36.036Z,12.30
2023-01-08T10:38:04.681Z,12.00
2023-01-08T10:40:35.564Z,10.80
2023-01-08T10:43:13.290Z,12.40
2023-01-08T10:45:43.862Z,11.60
2023-01-08T10:48:18.222Z,11.20
2023-01-08T10:50:46.215Z,13.40
2023-01-08T10:53:25.953Z,13.50
2023-01-08T10:56:01.796Z,12.10
2023-01-08T10:58:30.648Z,11.60
2023-01-08T11:04:36.764Z,13.10
2023-01-08T11:07:06.939Z,12.20
2023-01-08T11:09:41.814Z,14.40
2023-01-08T11:12:41.792Z,11.90
2023-01-08T11:15:17.840Z,12.90
2023-01-08T11:17:46.319Z,12.40
2023-01-08T11:20:22.358Z,12.70
2023-01-08T11:22:50.754Z,12.70
2023-01-08T11:25:28.868Z,13.20
2023-01-08T11:27:58.500Z,12.40
2023-01-08T11:30:27.925Z,12.20
2023-01-08T11:33:18.405Z,13.20
2023-01-08T11:38:41.475Z,11.90
2023-01-08T11:41:09.300Z,12.30
2023-01-08T11:44:23.703Z,13.10
2023-01-08T11:47:05.086Z,13.10
2023-01-08T11:49:32.866Z,12.60
2023-01-08T11:52:00.756Z,12.60
2023-01-08T11:54:46.911Z,13.90
2023-01-08T11:57:23.727Z,11.70
2023-01-08T12:00:14.385Z,14.10
2023-01-08T12:03:01.418Z,13.60
2023-01-08T12:06:02.415Z,13.90
2023-01-08T12:08:44.393Z,12.30
2023-01-08T12:11:26.681Z,13.90
2023-01-08T12:14:25.492Z,13.80
2023-01-08T12:17:46.198Z,14.10
2023-01-08T12:20:26.372Z,14.90
2023-01-08T12:22:57.165Z,14.60
2023-01-08T12:25:46.838Z,16.70
2023-01-08T12:28:30.028Z,17.00
2023-01-08T12:31:18.196Z,17.40
2023-01-08T12:34:05.350Z,16.00
2023-01-08T12:36:55.280Z,15.40
2023-01-08T12:39:33.922Z,17.40
2023-01-08T12:42:24.626Z,16.00
2023-01-08T12:44:55.178Z,15.20
2023-01-08T12:47:28.150Z,18.20
2023-01-08T12:50:20.743Z,15.30
2023-01-08T12:52:56.176Z,14.60
2023-01-08T12:55:38.916Z,17.40
2023-01-08T12:58:31.730Z,18.70
2023-01-08T13:01:17.309Z,21.00
2023-01-08T13:03:45.715Z,21.70
2023-01-08T13:06:16.967Z,21.70
2023-01-08T13:08:52.318Z,18.30
2023-01-08T13:11:37.003Z,16.90
2023-01-08T13:14:08.885Z,16.40
2023-01-08T13:16:46.771Z,15.40
2023-01-08T13:19:26.125Z,16.20
2023-01-08T13:21:57.500Z,15.50
2023-01-08T13:24:29.534Z,15.80
2023-01-08T13:27:09.640Z,17.10
2023-01-08T13:29:40.422Z,16.20
2023-01-08T13:32:39.532Z,16.10
2023-01-08T13:35:16.544Z,16.10
2023-01-08T13:37:50.927Z,17.50
2023-01-08T13:40:43.794Z,15.60
2023-01-08T13:43:25.204Z,17.00
2023-01-08T13:46:02.671Z,18.30
2023-01-08T13:48:49.659Z,17.20
2023-01-08T13:54:40.275Z,19.20
2023-01-08T13:57:14.928Z,21.20
2023-01-08T13:59:49.595Z,18.70
2023-01-08T14:02:44.550Z,19.70
2023-01-08T14:05:29.821Z,17.50
2023-01-08T14:07:59.123Z,17.30
2023-01-08T14:10:29.430Z,17.60
2023-01-08T14:13:07.219Z,16.70
2023-01-08T14:15:38.710Z,17.20
2023-01-08T14:18:06.891Z,17.70
2023-01-08T14:20:39.381Z,17.30
2023-01-08T14:23:20.502Z,18.10
2023-01-08T14:25:49.596Z,18.60
2023-01-08T14:28:22.879Z,18.80
2023-01-08T14:30:53.583Z,17.80
2023-01-08T14:33:32.373Z,18.30
2023-01-08T14:36:02.340Z,16.70
2023-01-08T14:38:30.329Z,18.40
2023-01-08T14:41:03.029Z,18.30
2023-01-08T14:43:35.609Z,18.80
2023-01-08T14:46:04.358Z,19.50
2023-01-08T14:48:43.143Z,19.60
2023-01-08T14:51:16.766Z,19.70
2023-01-08T14:53:48.431Z,19.90
2023-01-08T14:56:20.083Z,21.10
2023-01-08T14:58:49.501Z,20.40
2023-01-08T15:01:23.801Z,20.00
2023-01-08T15:04:04.189Z,19.10
2023-01-08T15:06:33.828Z,19.30
2023-01-08T15:09:01.850Z,21.00
2023-01-08T15:11:53.425Z,18.50
2023-01-08T15:14:26.152Z,20.40
2023-01-08T15:16:57.924Z,20.00
2023-01-08T15:19:28.873Z,21.10
2023-01-08T15:21:59.531Z,22.10
2023-01-08T15:24:36.062Z,22.20
2023-01-08T15:27:10.073Z,23.90
2023-01-08T15:29:41.954Z,24.20
2023-01-08T15:32:18.405Z,23.70
2023-01-08T15:34:46.601Z,22.20
2023-01-08T15:37:15.615Z,26.10
2023-01-08T15:39:43.569Z,28.10
2023-01-08T15:42:43.255Z,27.90
2023-01-08T15:45:14.092Z,29.90
2023-01-08T15:47:42.017Z,31.90
2023-01-08T15:50:10.594Z,29.80
2023-01-08T15:52:41.667Z,29.40
2023-01-08T15:55:18.604Z,29.40
2023-01-08T15:57:46.925Z,31.20
2023-01-08T16:00:16.501Z,29.70
2023-01-08T16:02:47.453Z,31.70
2023-01-08T16:05:20.069Z,35.00
2023-01-08T16:07:48.481Z,31.60
2023-01-08T16:10:17.616Z,33.30
2023-01-08T16:12:45.660Z,31.60
2023-01-08T16:15:15.336Z,32.80
2023-01-08T16:17:44.123Z,31.70
2023-01-08T16:20:13.340Z,30.70
2023-01-08T16:22:41.747Z,28.70
2023-01-08T16:25:09.967Z,29.80
2023-01-08T16:27:39.623Z,31.20
2023-01-08T16:30:10.467Z,28.90
2023-01-08T16:32:38.265Z,31.10
2023-01-08T16:35:06.738Z,30.70
2023-01-08T16:37:34.573Z,30.00
2023-01-08T16:40:02.375Z,29.30
2023-01-08T16:42:30.330Z,28.10
2023-01-08T16:44:58.174Z,29.20
2023-01-08T16:47:26.010Z,29.30
2023-01-08T16:49:54.356Z,28.90
2023-01-08T16:52:22.509Z,29.50
2023-01-08T16:54:50.373Z,28.20
2023-01-08T16:57:18.187Z,30.30
2023-01-08T16:59:46.537Z,30.20
2023-01-08T17:02:14.389Z,30.30
2023-01-08T17:04:42.234Z,29.90
2023-01-08T17:07:13.570Z,28.20
2023-01-08T17:09:41.456Z,28.30
2023-01-08T17:12:09.265Z,27.10
2023-01-08T17:14:37.508Z,26.90
2023-01-08T17:17:05.431Z,27.90
2023-01-08T17:19:33.475Z,28.20
2023-01-08T17:22:01.268Z,28.70
2023-01-08T17:24:29.035Z,27.70
2023-01-08T17:26:57.972Z,28.30
2023-01-08T17:29:25.899Z,28.60
2023-01-08T17:31:53.856Z,29.50
2023-01-08T17:34:21.730Z,29.70
2023-01-08T17:36:49.547Z,28.70
2023-01-08T17:39:17.462Z,28.90
2023-01-08T17:42:03.709Z,29.80
2023-01-08T17:44:31.659Z,28.60
2023-01-08T17:46:59.498Z,29.50
2023-01-08T17:49:27.314Z,28.10
2023-01-08T17:51:57.032Z,29.90
2023-01-08T17:54:25.122Z,30.10
2023-01-08T17:56:53.777Z,29.40
2023-01-08T17:59:21.897Z,30.70
2023-01-08T18:01:52.207Z,30.70
2023-01-08T18:04:20.339Z,29.50
2023-01-08T18:06:48.239Z,31.10
2023-01-08T18:09:16.112Z,30.10
2023-01-08T18:11:44.016Z,29.30
2023-01-08T18:14:13.427Z,31.80
2023-01-08T18:16:45.577Z,32.00
2023-01-08T18:19:15.952Z,30.40
2023-01-08T18:21:44.588Z,29.00
2023-01-08T18:24:13.280Z,32.80
2023-01-08T18:26:41.555Z,31.00
2023-01-08T18:29:09.632Z,33.10
2023-01-08T18:31:37.607Z,31.80
2023-01-08T18:34:05.669Z,33.70
2023-01-08T18:36:33.541Z,33.80
2023-01-08T18:39:01.455Z,31.90
2023-01-08T18:41:48.173Z,32.30
2023-01-08T18:44:16.197Z,35.10
2023-01-08T18:46:45.467Z,35.70
2023-01-08T18:49:14.996Z,32.30
2023-01-08T18:51:43.371Z,32.00
2023-01-08T18:54:12.946Z,34.30
2023-01-08T18:56:40.754Z,35.70
2023-01-08T18:59:10.309Z,30.90
2023-01-08T19:04:36.387Z,32.10
2023-01-08T19:07:04.235Z,31.70
2023-01-08T19:09:32.065Z,31.70
2023-01-08T19:11:59.965Z,30.50
2023-01-08T19:14:30.831Z,31.10
2023-01-08T19:16:59.028Z,31.10
2023-01-08T19:19:28.403Z,32.60
2023-01-08T19:21:57.240Z,30.80
2023-01-08T19:24:25.225Z,32.10
2023-01-08T19:26:53.148Z,30.50
2023-01-08T19:29:20.972Z,31.50
2023-01-08T19:31:48.869Z,30.50
2023-01-08T19:34:16.652Z,29.60
2023-01-08T19:36:44.673Z,29.40
2023-01-08T19:39:12.885Z,30.40
2023-01-08T19:41:59.426Z,29.40
2023-01-08T19:44:27.273Z,28.90
2023-01-08T19:46:55.129Z,28.90
2023-01-08T19:49:23.861Z,28.70
2023-01-08T19:51:52.635Z,29.50
2023-01-08T19:54:23.689Z,29.80
2023-01-08T19:56:52.860Z,28.30
2023-01-08T19:59:20.777Z,28.50
2023-01-08T20:01:49.025Z,26.80
2023-01-08T20:04:17.129Z,28.00
2023-01-08T20:06:45.079Z,28.20
2023-01-08T20:10:04.615Z,29.40
2023-01-08T20:12:32.694Z,30.50
2023-01-08T20:15:00.558Z,29.50
2023-01-08T20:17:28.470Z,31.60
2023-01-08T20:19:56.330Z,34.00
2023-01-08T20:22:24.970Z,32.00
2023-01-08T20:24:53.272Z,33.20
2023-01-08T20:27:21.061Z,29.90
2023-01-08T20:29:48.890Z,34.60
2023-01-08T20:32:16.740Z,33.10
2023-01-08T20:34:44.689Z,31.40
2023-01-08T20:37:12.571Z,29.50
2023-01-08T20:39:41.029Z,28.60
2023-01-08T20:42:10.075Z,29.30
2023-01-08T20:44:38.094Z,28.50
2023-01-08T20:47:05.993Z,29.40
2023-01-08T20:49:33.797Z,28.50
2023-01-08T20:52:01.678Z,30.20
2023-01-08T20:54:30.343Z,28.60
2023-01-08T20:56:59.607Z,28.50
2023-01-08T20:59:28.250Z,28.00
2023-01-08T21:01:57.298Z,27.80
2023-01-08T21:04:25.728Z,29.40
2023-01-08T21:06:53.855Z,28.20
2023-01-08T21:09:21.866Z,29.50
2023-01-08T21:11:50.753Z,28.80
2023-01-08T21:14:18.691Z,27.60
2023-01-08T21:16:46.471Z,28.00
2023-01-08T21:19:15.414Z,28.20
2023-01-08T21:21:43.431Z,28.50
2023-01-08T21:24:12.991Z,27.30
2023-01-08T21:26:40.932Z,28.60
2023-01-08T21:29:09.229Z,29.20
2023-01-08T21:31:38.329Z,27.40
2023-01-08T21:34:08.780Z,27.80
2023-01-08T21:36:39.144Z,29.20
2023-01-08T21:39:07.369Z,26.50
2023-01-08T21:41:53.820Z,28.70
2023-01-08T21:44:42.120Z,28.70
2023-01-08T21:47:13.286Z,29.90
2023-01-08T21:49:42.105Z,29.00
2023-01-08T21:52:28.429Z,29.10
2023-01-08T21:54:58.159Z,28.10
2023-01-08T21:57:28.141Z,29.00
2023-01-08T21:59:56.333Z,31.10
2023-01-08T22:02:26.152Z,29.00
2023-01-08T22:04:56.754Z,31.00
2023-01-08T22:07:25.824Z,28.20
2023-01-08T22:09:53.785Z,28.80
2023-01-08T22:12:26.049Z,29.30
2023-01-08T22:14:55.218Z,29.90
2023-01-08T22:17:25.023Z,28.80
2023-01-08T22:19:53.511Z,29.20
2023-01-08T22:22:21.472Z,28.50
2023-01-08T22:24:51.719Z,30.60
2023-01-08T22:27:19.671Z,28.80
2023-01-08T22:29:48.920Z,28.40
2023-01-08T22:32:17.010Z,29.60
2023-01-08T22:34:44.967Z,30.80
2023-01-08T22:37:12.976Z,30.90
2023-01-08T22:39:41.714Z,30.50
2023-01-08T22:42:09.709Z,28.60
2023-01-08T22:44:37.572Z,31.30
2023-01-08T22:47:06.289Z,29.90
2023-01-08T22:49:34.336Z,30.20
2023-01-08T22:52:02.267Z,29.50
2023-01-08T22:54:30.412Z,29.80
2023-01-08T22:56:58.379Z,29.40
2023-01-08T22:59:26.342Z,30.50
2023-01-08T23:01:54.419Z,30.20
2023-01-08T23:04:22.244Z,29.70
2023-01-08T23:06:50.001Z,30.10
2023-01-08T23:09:18.202Z,30.20
2023-01-08T23:11:46.019Z,30.80
2023-01-08T23:14:15.979Z,32.00
2023-01-08T23:16:44.319Z,32.60
2023-01-08T23:19:12.383Z,31.50
2023-01-08T23:21:40.355Z,29.50
2023-01-08T23:24:11.869Z,29.00
2023-01-08T23:26:39.888Z,29.60
2023-01-08T23:29:07.819Z,31.40
2023-01-08T23:31:37.827Z,32.60
2023-01-08T23:34:06.497Z,31.50
2023-01-08T23:36:34.442Z,30.70
2023-01-08T23:39:02.371Z,30.60
2023-01-08T23:41:35.057Z,31.10
2023-01-08T23:44:06.477Z,31.00
2023-01-08T23:46:34.976Z,30.50
2023-01-08T23:49:03.091Z,29.90
2023-01-08T23:51:30.878Z,29.30
2023-01-08T23:53:58.970Z,31.70
2023-01-08T23:56:27.701Z,32.00
2023-01-08T23:58:56.642Z,29.50
